createdAt,value
2023-02-12T00:01:58.576Z,4.10
2023-02-12T00:04:25.185Z,4.03
2023-02-12T00:06:51.784Z,4.01
2023-02-12T00:09:18.365Z,4.07
2023-02-12T00:11:44.919Z,4.07
2023-02-12T00:14:11.526Z,4.08
2023-02-12T00:16:38.347Z,4.06
2023-02-12T00:19:04.727Z,4.01
2023-02-12T00:21:31.353Z,4.04
2023-02-12T00:23:58.137Z,3.91
2023-02-12T00:26:25.071Z,3.81
2023-02-12T00:28:51.683Z,3.81
2023-02-12T00:31:25.187Z,3.80
2023-02-12T00:33:51.984Z,3.77
2023-02-12T00:36:21.088Z,3.70
2023-02-12T00:38:49.557Z,3.72
2023-02-12T00:41:16.318Z,3.70
2023-02-12T00:43:42.964Z,3.65
2023-02-12T00:46:10.166Z,3.59
2023-02-12T00:48:37.349Z,3.68
2023-02-12T00:51:04.224Z,3.66
2023-02-12T00:53:30.860Z,3.58
2023-02-12T00:55:57.992Z,3.60
2023-02-12T00:58:24.429Z,3.57
2023-02-12T01:00:51.172Z,3.55
2023-02-12T01:03:17.961Z,3.59
2023-02-12T01:05:44.637Z,3.56
2023-02-12T01:08:13.661Z,3.61
2023-02-12T01:10:41.014Z,3.58
2023-02-12T01:13:07.834Z,3.65
2023-02-12T01:15:34.232Z,3.60
2023-02-12T01:18:00.800Z,3.66
2023-02-12T01:20:27.489Z,3.65
2023-02-12T01:22:54.182Z,3.70
2023-02-12T01:25:20.944Z,3.76
2023-02-12T01:27:48.403Z,3.68
2023-02-12T01:30:15.799Z,3.66
2023-02-12T01:32:43.126Z,3.60
2023-02-12T01:35:10.741Z,3.66
2023-02-12T01:37:38.218Z,3.68
2023-02-12T01:40:08.159Z,3.74
2023-02-12T01:42:34.842Z,3.62
2023-02-12T01:45:13.348Z,3.63
2023-02-12T01:47:44.793Z,3.76
2023-02-12T01:50:16.113Z,3.75
2023-02-12T01:52:48.349Z,3.72
2023-02-12T01:55:15.830Z,3.74
2023-02-12T01:57:46.160Z,3.71
2023-02-12T02:00:20.266Z,3.73
2023-02-12T02:02:51.417Z,3.71
2023-02-12T02:05:25.059Z,3.76
2023-02-12T02:07:53.581Z,3.65
2023-02-12T02:10:20.371Z,3.73
2023-02-12T02:13:05.393Z,3.71
2023-02-12T02:15:33.468Z,3.59
2023-02-12T02:18:11.936Z,3.67
2023-02-12T02:20:54.658Z,3.62
2023-02-12T02:23:59.352Z,3.62
2023-02-12T02:26:41.178Z,3.60
2023-02-12T02:29:17.968Z,3.64
2023-02-12T02:32:03.158Z,3.67
2023-02-12T02:35:03.702Z,3.59
2023-02-12T02:37:40.941Z,3.65
2023-02-12T02:40:24.879Z,3.61
2023-02-12T02:43:06.528Z,3.56
2023-02-12T02:45:48.234Z,3.44
2023-02-12T02:48:21.960Z,3.43
2023-02-12T02:50:56.161Z,3.34
2023-02-12T02:53:31.670Z,3.39
2023-02-12T02:56:02.083Z,3.42
2023-02-12T02:58:36.424Z,3.30
2023-02-12T03:01:06.186Z,3.37
2023-02-12T03:03:38.118Z,3.25
2023-02-12T03:06:10.417Z,3.31
2023-02-12T03:08:43.897Z,3.34
2023-02-12T03:11:18.317Z,3.30
2023-02-12T03:14:03.794Z,3.30
2023-02-12T03:17:00.003Z,3.25
2023-02-12T03:19:30.810Z,3.27
2023-02-12T03:22:03.446Z,3.31
2023-02-12T03:24:36.399Z,3.34
2023-02-12T03:27:11.339Z,3.36
2023-02-12T03:29:38.179Z,3.38
2023-02-12T03:32:10.125Z,3.41
2023-02-12T03:34:50.544Z,3.32
2023-02-12T03:37:33.968Z,3.24
2023-02-12T03:40:20.738Z,3.23
2023-02-12T03:42:58.003Z,3.24
2023-02-12T03:45:47.523Z,3.26
2023-02-12T03:48:16.999Z,3.23
2023-02-12T03:50:54.025Z,3.24
2023-02-12T03:53:21.110Z,3.17
2023-02-12T03:55:52.688Z,3.18
2023-02-12T03:58:24.858Z,3.13
2023-02-12T04:00:52.118Z,3.17
2023-02-12T04:03:18.981Z,3.19
2023-02-12T04:05:45.590Z,3.15
2023-02-12T04:08:13.225Z,3.11
2023-02-12T04:11:01.502Z,3.08
2023-02-12T04:13:50.253Z,3.08
2023-02-12T04:16:29.872Z,3.03
2023-02-12T04:18:57.006Z,3.02
2023-02-12T04:22:03.350Z,3.07
2023-02-12T04:24:38.945Z,3.01
2023-02-12T04:27:17.260Z,2.96
2023-02-12T04:29:54.791Z,2.89
2023-02-12T04:32:37.900Z,2.99
2023-02-12T04:35:22.799Z,2.92
2023-02-12T04:37:52.183Z,3.00
2023-02-12T04:40:20.561Z,2.95
2023-02-12T04:42:49.488Z,3.10
2023-02-12T04:45:29.913Z,3.22
2023-02-12T04:47:56.857Z,3.15
2023-02-12T04:50:23.618Z,3.10
2023-02-12T04:52:50.039Z,3.04
2023-02-12T04:55:17.048Z,3.09
2023-02-12T04:57:43.667Z,3.10
2023-02-12T05:00:13.546Z,3.24
2023-02-12T05:02:40.287Z,3.17
2023-02-12T05:05:07.319Z,3.23
2023-02-12T05:07:33.916Z,3.33
2023-02-12T05:10:00.600Z,3.30
2023-02-12T05:12:27.165Z,3.22
2023-02-12T05:14:53.556Z,3.18
2023-02-12T05:17:22.976Z,3.24
2023-02-12T05:19:49.589Z,3.33
2023-02-12T05:22:16.041Z,3.38
2023-02-12T05:24:42.770Z,3.43
2023-02-12T05:27:09.468Z,3.43
2023-02-12T05:29:36.836Z,3.40
2023-02-12T05:32:04.167Z,3.43
2023-02-12T05:34:30.861Z,3.46
2023-02-12T05:36:57.413Z,3.37
2023-02-12T05:39:23.757Z,3.36
2023-02-12T05:41:50.330Z,3.38
2023-02-12T05:44:16.950Z,3.34
2023-02-12T05:46:43.893Z,3.38
2023-02-12T05:49:11.129Z,3.34
2023-02-12T05:51:37.994Z,3.38
2023-02-12T05:54:07.508Z,3.33
2023-02-12T05:56:42.335Z,3.47
2023-02-12T05:59:15.169Z,3.48
2023-02-12T06:01:43.646Z,3.41
2023-02-12T06:04:19.156Z,3.45
2023-02-12T06:06:46.419Z,3.44
2023-02-12T06:09:14.187Z,3.47
2023-02-12T06:11:41.603Z,3.47
2023-02-12T06:14:11.304Z,3.44
2023-02-12T06:16:38.085Z,3.45
2023-02-12T06:19:09.777Z,3.47
2023-02-12T06:21:36.121Z,3.43
2023-02-12T06:24:02.733Z,3.46
2023-02-12T06:26:29.346Z,3.51
2023-02-12T06:28:55.968Z,3.52
2023-02-12T06:31:25.186Z,3.53
2023-02-12T06:33:52.451Z,3.41
2023-02-12T06:36:20.163Z,3.47
2023-02-12T06:38:47.136Z,3.39
2023-02-12T06:41:13.861Z,3.41
2023-02-12T06:43:40.705Z,3.46
2023-02-12T06:46:08.644Z,3.44
2023-02-12T06:48:35.472Z,3.47
2023-02-12T06:51:11.872Z,3.41
2023-02-12T06:53:38.526Z,3.40
2023-02-12T06:56:07.040Z,3.52
2023-02-12T06:58:33.685Z,3.40
2023-02-12T07:01:18.152Z,3.46
2023-02-12T07:03:48.612Z,3.38
2023-02-12T07:06:15.215Z,3.40
2023-02-12T07:08:41.811Z,3.38
2023-02-12T07:11:08.466Z,3.30
2023-02-12T07:13:35.432Z,3.42
2023-02-12T07:16:09.803Z,3.46
2023-02-12T07:18:37.356Z,3.41
2023-02-12T07:21:05.491Z,3.39
2023-02-12T07:23:32.690Z,3.35
2023-02-12T07:26:01.863Z,3.29
2023-02-12T07:28:28.322Z,3.36
2023-02-12T07:30:54.835Z,3.48
2023-02-12T07:33:21.377Z,3.48
2023-02-12T07:35:47.926Z,3.54
2023-02-12T07:38:14.521Z,3.67
2023-02-12T07:40:41.158Z,3.62
2023-02-12T07:43:07.779Z,3.39
2023-02-12T07:45:34.158Z,3.37
2023-02-12T07:48:00.732Z,3.48
2023-02-12T07:50:27.352Z,3.32
2023-02-12T07:52:53.927Z,3.42
2023-02-12T07:55:20.540Z,3.47
2023-02-12T07:57:46.901Z,3.36
2023-02-12T08:00:13.926Z,3.62
2023-02-12T08:02:40.929Z,3.62
2023-02-12T08:05:07.936Z,3.75
2023-02-12T08:07:34.593Z,3.79
2023-02-12T08:10:00.896Z,3.93
2023-02-12T08:12:27.225Z,3.96
2023-02-12T08:14:54.565Z,3.99
2023-02-12T08:17:21.172Z,4.18
2023-02-12T08:19:47.724Z,4.16
2023-02-12T08:22:14.417Z,4.19
2023-02-12T08:24:41.001Z,4.33
2023-02-12T08:27:07.459Z,4.39
2023-02-12T08:29:34.034Z,4.60
2023-02-12T08:32:03.110Z,4.63
2023-02-12T08:34:33.222Z,4.67
2023-02-12T08:37:00.858Z,4.49
2023-02-12T08:39:30.195Z,4.58
2023-02-12T08:41:58.145Z,4.41
2023-02-12T08:44:26.498Z,4.44
2023-02-12T08:46:53.819Z,4.53
2023-02-12T08:49:23.134Z,4.56
2023-02-12T08:51:52.108Z,4.42
2023-02-12T08:54:24.000Z,4.52
2023-02-12T08:56:50.947Z,4.25
2023-02-12T08:59:17.922Z,4.34
2023-02-12T09:01:45.131Z,4.39
2023-02-12T09:04:17.704Z,4.64
2023-02-12T09:06:45.477Z,4.68
2023-02-12T09:09:13.474Z,4.88
2023-02-12T09:11:40.499Z,5.03
2023-02-12T09:14:11.140Z,5.07
2023-02-12T09:16:40.480Z,5.16
2023-02-12T09:19:07.572Z,5.00
2023-02-12T09:21:34.116Z,5.16
2023-02-12T09:24:02.142Z,5.24
2023-02-12T09:26:28.767Z,5.22
2023-02-12T09:28:55.289Z,5.45
2023-02-12T09:31:27.132Z,5.50
2023-02-12T09:33:56.248Z,5.51
2023-02-12T09:36:22.602Z,5.63
2023-02-12T09:38:49.984Z,5.54
2023-02-12T09:41:34.629Z,5.63
2023-02-12T09:44:16.763Z,5.68
2023-02-12T09:46:48.425Z,5.70
2023-02-12T09:49:24.224Z,5.71
2023-02-12T09:51:54.934Z,5.80
2023-02-12T09:54:26.228Z,5.72
2023-02-12T09:57:00.505Z,5.93
2023-02-12T09:59:27.043Z,5.95
2023-02-12T10:01:53.705Z,5.93
2023-02-12T10:04:20.624Z,6.00
2023-02-12T10:06:56.789Z,5.97
2023-02-12T10:09:35.077Z,6.11
2023-02-12T10:12:12.404Z,6.06
2023-02-12T10:14:45.836Z,6.02
2023-02-12T10:17:45.233Z,6.14
2023-02-12T10:20:59.959Z,6.16
2023-02-12T10:23:48.634Z,6.25
2023-02-12T10:26:29.841Z,5.96
2023-02-12T10:29:05.633Z,6.14
2023-02-12T10:31:37.314Z,6.01
2023-02-12T10:34:22.850Z,5.96
2023-02-12T10:36:54.283Z,5.99
2023-02-12T10:39:24.390Z,6.15
2023-02-12T10:42:11.708Z,6.35
2023-02-12T10:44:38.317Z,6.49
2023-02-12T10:47:05.027Z,6.58
2023-02-12T10:49:33.106Z,6.69
2023-02-12T10:52:05.605Z,6.58
2023-02-12T10:54:42.159Z,6.64
2023-02-12T10:57:17.216Z,6.78
2023-02-12T10:59:45.740Z,6.85
2023-02-12T11:02:38.550Z,6.82
2023-02-12T11:05:25.350Z,7.07
2023-02-12T11:07:52.290Z,7.22
2023-02-12T11:10:31.962Z,7.26
2023-02-12T11:13:02.203Z,7.35
2023-02-12T11:15:51.737Z,7.52
2023-02-12T11:18:27.836Z,7.50
2023-02-12T11:21:01.720Z,7.09
2023-02-12T11:23:34.389Z,6.94
2023-02-12T11:26:19.169Z,6.84
2023-02-12T11:28:57.566Z,7.02
2023-02-12T11:31:29.200Z,7.01
2023-02-12T11:34:14.107Z,7.13
2023-02-12T11:36:45.807Z,7.12
2023-02-12T11:39:21.471Z,7.09
2023-02-12T11:41:53.280Z,7.21
2023-02-12T11:44:24.604Z,7.27
2023-02-12T11:46:58.714Z,7.38
2023-02-12T11:49:39.440Z,7.20
2023-02-12T11:52:06.932Z,7.08
2023-02-12T11:54:42.881Z,7.13
2023-02-12T11:57:43.754Z,7.05
2023-02-12T12:00:37.394Z,7.08
2023-02-12T12:03:15.259Z,7.21
2023-02-12T12:05:48.569Z,7.25
2023-02-12T12:08:29.730Z,7.26
2023-02-12T12:11:15.385Z,7.25
2023-02-12T12:13:51.096Z,7.31
2023-02-12T12:16:58.167Z,7.34
2023-02-12T12:19:54.197Z,7.18
2023-02-12T12:22:45.802Z,7.29
2023-02-12T12:25:27.318Z,7.36
2023-02-12T12:28:08.316Z,7.12
2023-02-12T12:30:43.632Z,7.41
2023-02-12T12:33:35.299Z,7.46
2023-02-12T12:36:18.657Z,7.53
2023-02-12T12:39:10.390Z,7.40
2023-02-12T12:41:59.048Z,7.52
2023-02-12T12:44:52.677Z,7.57
2023-02-12T12:48:04.124Z,7.56
2023-02-12T12:50:58.696Z,7.64
2023-02-12T12:53:46.883Z,7.58
2023-02-12T12:56:36.130Z,7.48
2023-02-12T12:59:30.542Z,7.28
2023-02-12T13:02:35.069Z,7.23
2023-02-12T13:05:19.328Z,7.10
2023-02-12T13:08:08.746Z,7.36
2023-02-12T13:10:47.428Z,7.28
2023-02-12T13:13:26.522Z,7.19
2023-02-12T13:16:11.343Z,7.03
2023-02-12T13:18:52.746Z,7.50
2023-02-12T13:21:28.660Z,7.92
2023-02-12T13:24:13.855Z,9.01
2023-02-12T13:26:55.128Z,9.92
2023-02-12T13:29:21.766Z,9.39
2023-02-12T13:32:14.777Z,9.62
2023-02-12T13:34:44.126Z,10.12
2023-02-12T13:37:17.709Z,10.51
2023-02-12T13:39:47.933Z,10.86
2023-02-12T13:42:26.620Z,11.32
2023-02-12T13:45:16.612Z,11.74
2023-02-12T13:48:03.952Z,11.91
2023-02-12T13:50:41.924Z,11.76
2023-02-12T13:53:27.249Z,10.88
2023-02-12T13:56:10.100Z,11.56
2023-02-12T13:58:41.938Z,10.25
2023-02-12T14:01:30.820Z,9.56
2023-02-12T14:04:14.849Z,9.46
2023-02-12T14:06:59.761Z,8.59
2023-02-12T14:09:50.235Z,8.59
2023-02-12T14:12:30.824Z,8.68
2023-02-12T14:15:31.371Z,8.61
2023-02-12T14:18:29.607Z,8.23
2023-02-12T14:21:17.242Z,7.91
2023-02-12T14:23:46.184Z,8.04
2023-02-12T14:26:15.087Z,8.05
2023-02-12T14:28:49.118Z,8.03
2023-02-12T14:31:18.781Z,8.10
2023-02-12T14:33:53.542Z,8.06
2023-02-12T14:36:42.838Z,7.89
2023-02-12T14:39:22.458Z,7.98
2023-02-12T14:41:57.393Z,7.73
2023-02-12T14:44:23.962Z,7.42
2023-02-12T14:46:52.458Z,7.35
2023-02-12T14:49:26.970Z,7.30
2023-02-12T14:52:02.459Z,7.64
2023-02-12T14:54:37.203Z,7.76
2023-02-12T14:57:09.613Z,7.60
2023-02-12T14:59:40.851Z,7.47
2023-02-12T15:02:14.280Z,7.59
2023-02-12T15:04:45.499Z,7.57
2023-02-12T15:07:17.554Z,7.31
2023-02-12T15:09:52.503Z,7.28
2023-02-12T15:12:26.619Z,7.34
2023-02-12T15:15:05.799Z,7.55
2023-02-12T15:17:39.560Z,7.44
2023-02-12T15:20:32.356Z,7.34
2023-02-12T15:22:58.877Z,7.53
2023-02-12T15:25:28.534Z,7.64
2023-02-12T15:27:59.647Z,7.56
2023-02-12T15:30:29.490Z,7.42
2023-02-12T15:32:58.412Z,7.54
2023-02-12T15:35:44.069Z,7.41
2023-02-12T15:38:20.742Z,7.29
2023-02-12T15:40:55.621Z,7.44
2023-02-12T15:43:22.195Z,7.35
2023-02-12T15:45:52.656Z,7.37
2023-02-12T15:48:21.728Z,7.36
2023-02-12T15:50:58.284Z,7.18
2023-02-12T15:53:28.228Z,7.15
2023-02-12T15:55:55.374Z,7.21
2023-02-12T15:58:48.428Z,7.11
2023-02-12T16:01:20.988Z,6.99
2023-02-12T16:03:59.363Z,7.03
2023-02-12T16:06:28.039Z,6.82
2023-02-12T16:09:16.703Z,6.83
2023-02-12T16:11:45.448Z,6.82
2023-02-12T16:14:26.249Z,6.77
2023-02-12T16:16:55.116Z,6.71
2023-02-12T16:19:29.963Z,6.59
2023-02-12T16:22:08.352Z,6.52
2023-02-12T16:24:40.506Z,6.40
2023-02-12T16:27:24.671Z,6.33
2023-02-12T16:30:04.272Z,6.18
2023-02-12T16:32:41.716Z,6.08
2023-02-12T16:35:11.214Z,5.93
2023-02-12T16:37:37.526Z,5.75
2023-02-12T16:40:13.194Z,5.70
2023-02-12T16:42:56.466Z,5.58
2023-02-12T16:45:29.921Z,5.44
2023-02-12T16:48:23.511Z,5.20
2023-02-12T16:50:57.984Z,5.25
2023-02-12T16:53:24.269Z,5.12
2023-02-12T16:55:51.224Z,4.99
2023-02-12T16:58:17.927Z,4.91
2023-02-12T17:00:44.913Z,4.84
2023-02-12T17:03:13.753Z,4.75
2023-02-12T17:05:42.818Z,4.64
2023-02-12T17:08:23.335Z,4.58
2023-02-12T17:10:50.119Z,4.45
2023-02-12T17:13:17.862Z,4.35
2023-02-12T17:16:01.919Z,4.25
2023-02-12T17:18:28.722Z,4.22
2023-02-12T17:20:59.445Z,4.14
2023-02-12T17:23:26.758Z,4.03
2023-02-12T17:25:53.209Z,3.93
2023-02-12T17:28:19.971Z,3.83
2023-02-12T17:30:46.686Z,3.83
2023-02-12T17:33:13.271Z,3.76
2023-02-12T17:35:40.508Z,3.73
2023-02-12T17:38:07.651Z,3.65
2023-02-12T17:40:38.683Z,3.60
2023-02-12T17:43:06.096Z,3.54
2023-02-12T17:45:32.967Z,3.46
2023-02-12T17:47:59.519Z,3.44
2023-02-12T17:50:26.241Z,3.33
2023-02-12T17:52:52.830Z,3.33
2023-02-12T17:55:19.491Z,3.27
2023-02-12T17:57:46.128Z,3.24
2023-02-12T18:00:13.461Z,3.18
2023-02-12T18:02:40.112Z,3.13
2023-02-12T18:05:07.169Z,3.10
2023-02-12T18:07:34.972Z,3.05
2023-02-12T18:10:01.817Z,3.00
2023-02-12T18:12:30.940Z,2.96
2023-02-12T18:14:58.913Z,2.96
2023-02-12T18:17:26.033Z,2.90
2023-02-12T18:19:53.084Z,2.86
2023-02-12T18:22:20.287Z,2.83
2023-02-12T18:24:47.182Z,2.82
2023-02-12T18:27:14.641Z,2.75
2023-02-12T18:29:41.585Z,2.67
2023-02-12T18:32:08.388Z,2.65
2023-02-12T18:34:34.966Z,2.62
2023-02-12T18:37:01.502Z,2.54
2023-02-12T18:39:29.037Z,2.56
2023-02-12T18:41:55.441Z,2.54
2023-02-12T18:44:22.973Z,2.48
2023-02-12T18:46:49.558Z,2.49
2023-02-12T18:49:16.541Z,2.43
2023-02-12T18:51:42.950Z,2.38
2023-02-12T18:54:13.333Z,2.30
2023-02-12T18:56:43.848Z,2.28
2023-02-12T18:59:12.980Z,2.24
2023-02-12T19:01:39.949Z,2.22
2023-02-12T19:04:09.393Z,2.20
2023-02-12T19:06:43.918Z,2.18
2023-02-12T19:09:11.856Z,2.15
2023-02-12T19:11:38.489Z,2.10
2023-02-12T19:14:05.152Z,2.07
2023-02-12T19:16:33.407Z,2.03
2023-02-12T19:19:01.437Z,2.01
2023-02-12T19:21:28.349Z,1.97
2023-02-12T19:24:00.622Z,1.94
2023-02-12T19:26:29.112Z,1.88
2023-02-12T19:28:57.036Z,1.87
2023-02-12T19:31:29.446Z,1.84
2023-02-12T19:34:02.492Z,1.83
2023-02-12T19:36:32.906Z,1.77
2023-02-12T19:38:59.791Z,1.69
2023-02-12T19:41:28.199Z,1.67
2023-02-12T19:44:00.682Z,1.63
2023-02-12T19:46:30.208Z,1.57
2023-02-12T19:49:02.097Z,1.53
2023-02-12T19:51:30.222Z,1.49
2023-02-12T19:54:02.196Z,1.44
2023-02-12T19:56:29.061Z,1.45
2023-02-12T19:58:57.696Z,1.39
2023-02-12T20:01:25.191Z,1.34
2023-02-12T20:03:51.638Z,1.31
2023-02-12T20:06:23.872Z,1.25
2023-02-12T20:08:53.646Z,1.25
2023-02-12T20:11:23.177Z,1.22
2023-02-12T20:13:50.206Z,1.15
2023-02-12T20:16:20.162Z,1.09
2023-02-12T20:18:52.462Z,0.98
2023-02-12T20:21:25.072Z,1.07
2023-02-12T20:23:52.004Z,1.04
2023-02-12T20:26:19.968Z,1.00
2023-02-12T20:28:47.220Z,0.98
2023-02-12T20:31:22.870Z,0.94
2023-02-12T20:33:54.636Z,0.85
2023-02-12T20:36:21.371Z,0.88
2023-02-12T20:38:52.432Z,0.86
2023-02-12T20:41:19.009Z,0.81
2023-02-12T20:43:45.702Z,0.79
2023-02-12T20:46:15.274Z,0.78
2023-02-12T20:48:42.087Z,0.79
2023-02-12T20:51:14.487Z,0.73
2023-02-12T20:53:42.411Z,0.70
2023-02-12T20:56:12.202Z,0.66
2023-02-12T20:58:40.309Z,0.65
2023-02-12T21:01:13.125Z,0.66
2023-02-12T21:03:40.324Z,0.60
2023-02-12T21:06:07.274Z,0.64
2023-02-12T21:08:36.896Z,0.64
2023-02-12T21:11:15.565Z,0.66
2023-02-12T21:13:53.920Z,0.66
2023-02-12T21:16:34.711Z,0.62
2023-02-12T21:19:01.264Z,0.64
2023-02-12T21:21:30.436Z,0.62
2023-02-12T21:23:59.317Z,0.66
2023-02-12T21:26:28.124Z,0.65
2023-02-12T21:28:57.181Z,0.65
2023-02-12T21:31:30.423Z,0.65
2023-02-12T21:33:59.023Z,0.61
2023-02-12T21:36:28.500Z,0.60
2023-02-12T21:38:55.685Z,0.64
2023-02-12T21:41:24.633Z,0.64
2023-02-12T21:43:57.860Z,0.60
2023-02-12T21:46:25.350Z,0.57
2023-02-12T21:48:52.264Z,0.57
2023-02-12T21:51:25.775Z,0.53
2023-02-12T21:53:54.430Z,0.56
2023-02-12T21:56:21.637Z,0.50
2023-02-12T21:58:49.130Z,0.47
2023-02-12T22:01:18.684Z,0.49
2023-02-12T22:03:45.249Z,0.48
2023-02-12T22:06:13.707Z,0.44
2023-02-12T22:08:40.492Z,0.42
2023-02-12T22:11:10.017Z,0.40
2023-02-12T22:13:37.617Z,0.38
2023-02-12T22:16:13.533Z,0.35
2023-02-12T22:18:41.210Z,0.31
2023-02-12T22:21:11.958Z,0.32
2023-02-12T22:23:40.503Z,0.16
2023-02-12T22:26:08.111Z,0.17
2023-02-12T22:28:39.080Z,0.13
2023-02-12T22:31:08.410Z,0.18
2023-02-12T22:33:35.170Z,0.18
2023-02-12T22:36:05.268Z,0.16
2023-02-12T22:38:39.203Z,0.17
2023-02-12T22:41:07.634Z,0.17
2023-02-12T22:43:35.955Z,0.15
2023-02-12T22:46:02.574Z,0.14
2023-02-12T22:48:29.584Z,0.15
2023-02-12T22:50:58.445Z,0.17
2023-02-12T22:53:26.004Z,0.12
2023-02-12T22:55:53.089Z,0.14
2023-02-12T22:58:19.772Z,0.20
2023-02-12T23:00:48.012Z,0.22
2023-02-12T23:03:14.659Z,0.22
2023-02-12T23:05:41.289Z,0.25
2023-02-12T23:08:07.856Z,0.33
2023-02-12T23:10:34.468Z,0.35
2023-02-12T23:13:03.055Z,0.42
2023-02-12T23:15:30.906Z,0.43
2023-02-12T23:17:57.626Z,0.45
2023-02-12T23:20:24.449Z,0.43
2023-02-12T23:22:51.076Z,0.61
2023-02-12T23:25:17.421Z,0.69
2023-02-12T23:27:43.953Z,0.81
2023-02-12T23:30:11.061Z,0.94
2023-02-12T23:32:37.642Z,1.01
2023-02-12T23:35:04.563Z,1.04
2023-02-12T23:37:30.846Z,1.15
2023-02-12T23:39:57.407Z,1.19
2023-02-12T23:42:24.021Z,1.28
2023-02-12T23:44:50.493Z,1.32
2023-02-12T23:47:17.077Z,1.27
2023-02-12T23:49:43.648Z,1.17
2023-02-12T23:52:10.234Z,1.20
2023-02-12T23:54:36.882Z,1.32
2023-02-12T23:57:03.494Z,1.19
2023-02-12T23:59:30.128Z,1.36
